sensor_id;sensor_type;location;lat;lon;timestamp;pressure;altitude;pressure_sealevel;temperature;humidity
34241;BME280;20503;50.200;19.508;2022-11-15T00:00:37;102093.38;;;1.54;100.00
34241;BME280;20503;50.200;19.508;2022-11-15T00:05:48;102087.25;;;1.63;100.00
34241;BME280;20503;50.200;19.508;2022-11-15T00:10:59;102071.91;;;1.52;100.00
34241;BME280;20503;50.200;19.508;2022-11-15T00:16:09;102079.75;;;1.55;100.00
34241;BME280;20503;50.200;19.508;2022-11-15T00:21:19;102076.56;;;1.50;100.00
34241;BME280;20503;50.200;19.508;2022-11-15T00:26:30;102079.22;;;1.39;100.00
34241;BME280;20503;50.200;19.508;2022-11-15T00:31:41;102076.96;;;1.22;100.00
34241;BME280;20503;50.200;19.508;2022-11-15T00:36:51;102074.11;;;1.13;100.00
34241;BME280;20503;50.200;19.508;2022-11-15T00:42:02;102054.48;;;1.00;100.00
34241;BME280;20503;50.200;19.508;2022-11-15T00:47:13;102064.55;;;1.09;100.00
34241;BME280;20503;50.200;19.508;2022-11-15T00:52:25;102067.53;;;1.17;100.00
34241;BME280;20503;50.200;19.508;2022-11-15T00:57:34;102070.44;;;1.14;100.00
34241;BME280;20503;50.200;19.508;2022-11-15T01:02:45;102067.58;;;1.04;100.00
34241;BME280;20503;50.200;19.508;2022-11-15T01:07:58;102066.57;;;0.71;100.00
34241;BME280;20503;50.200;19.508;2022-11-15T01:13:07;102074.09;;;0.78;100.00
34241;BME280;20503;50.200;19.508;2022-11-15T01:18:17;102064.86;;;0.93;100.00
34241;BME280;20503;50.200;19.508;2022-11-15T01:23:28;102065.20;;;1.23;100.00
34241;BME280;20503;50.200;19.508;2022-11-15T01:28:41;102061.47;;;1.48;100.00
34241;BME280;20503;50.200;19.508;2022-11-15T01:33:50;102058.16;;;1.44;100.00
34241;BME280;20503;50.200;19.508;2022-11-15T01:39:01;102047.10;;;1.36;100.00
34241;BME280;20503;50.200;19.508;2022-11-15T01:49:29;102020.34;;;1.11;100.00
34241;BME280;20503;50.200;19.508;2022-11-15T01:54:36;102015.23;;;0.96;100.00
34241;BME280;20503;50.200;19.508;2022-11-15T01:59:45;102015.08;;;0.86;100.00
34241;BME280;20503;50.200;19.508;2022-11-15T02:04:56;102007.34;;;0.82;100.00
34241;BME280;20503;50.200;19.508;2022-11-15T02:10:17;102001.74;;;0.85;100.00
34241;BME280;20503;50.200;19.508;2022-11-15T02:15:20;101993.52;;;0.86;100.00
34241;BME280;20503;50.200;19.508;2022-11-15T02:31:10;101987.73;;;0.80;100.00
34241;BME280;20503;50.200;19.508;2022-11-15T02:36:32;101976.97;;;0.80;100.00
34241;BME280;20503;50.200;19.508;2022-11-15T02:41:40;101971.80;;;0.77;100.00
34241;BME280;20503;50.200;19.508;2022-11-15T02:46:52;101966.67;;;0.74;100.00
34241;BME280;20503;50.200;19.508;2022-11-15T02:52:13;101951.33;;;1.09;100.00
34241;BME280;20503;50.200;19.508;2022-11-15T02:57:20;101937.85;;;1.09;100.00
34241;BME280;20503;50.200;19.508;2022-11-15T03:13:10;101933.75;;;0.81;100.00
34241;BME280;20503;50.200;19.508;2022-11-15T03:18:25;101930.46;;;0.89;100.00
34241;BME280;20503;50.200;19.508;2022-11-15T03:23:30;101932.19;;;0.90;100.00
34241;BME280;20503;50.200;19.508;2022-11-15T03:33:48;101902.64;;;0.77;100.00
34241;BME280;20503;50.200;19.508;2022-11-15T03:38:56;101915.77;;;0.93;100.00
34241;BME280;20503;50.200;19.508;2022-11-15T03:44:11;101895.96;;;1.05;100.00
34241;BME280;20503;50.200;19.508;2022-11-15T03:49:24;101897.98;;;0.90;100.00
34241;BME280;20503;50.200;19.508;2022-11-15T03:54:27;101886.01;;;1.05;100.00
34241;BME280;20503;50.200;19.508;2022-11-15T03:59:30;101885.17;;;1.27;100.00
34241;BME280;20503;50.200;19.508;2022-11-15T04:04:32;101880.38;;;0.97;100.00
34241;BME280;20503;50.200;19.508;2022-11-15T04:09:36;101871.09;;;1.12;100.00
34241;BME280;20503;50.200;19.508;2022-11-15T04:14:53;101863.14;;;1.33;100.00
34241;BME280;20503;50.200;19.508;2022-11-15T04:20:10;101855.23;;;1.63;100.00
34241;BME280;20503;50.200;19.508;2022-11-15T04:25:26;101850.45;;;1.77;100.00
34241;BME280;20503;50.200;19.508;2022-11-15T04:30:30;101841.84;;;1.72;100.00
34241;BME280;20503;50.200;19.508;2022-11-15T04:35:34;101838.83;;;1.55;100.00
34241;BME280;20503;50.200;19.508;2022-11-15T04:40:37;101836.59;;;1.71;100.00
34241;BME280;20503;50.200;19.508;2022-11-15T04:45:39;101834.26;;;1.66;100.00
34241;BME280;20503;50.200;19.508;2022-11-15T04:50:41;101825.35;;;1.97;100.00
34241;BME280;20503;50.200;19.508;2022-11-15T04:55:51;101817.48;;;2.25;100.00
34241;BME280;20503;50.200;19.508;2022-11-15T05:01:07;101819.20;;;2.06;100.00
34241;BME280;20503;50.200;19.508;2022-11-15T05:06:12;101820.21;;;1.52;100.00
34241;BME280;20503;50.200;19.508;2022-11-15T05:11:24;101821.95;;;1.84;100.00
34241;BME280;20503;50.200;19.508;2022-11-15T05:16:33;101809.73;;;2.32;100.00
34241;BME280;20503;50.200;19.508;2022-11-15T05:21:44;101813.46;;;2.20;100.00
34241;BME280;20503;50.200;19.508;2022-11-15T05:26:55;101798.05;;;2.11;100.00
34241;BME280;20503;50.200;19.508;2022-11-15T05:32:08;101798.45;;;1.75;100.00
34241;BME280;20503;50.200;19.508;2022-11-15T05:37:16;101796.61;;;1.65;100.00
34241;BME280;20503;50.200;19.508;2022-11-15T05:42:27;101800.59;;;1.50;100.00
34241;BME280;20503;50.200;19.508;2022-11-15T05:47:39;101790.16;;;1.87;100.00
34241;BME280;20503;50.200;19.508;2022-11-15T05:52:51;101787.47;;;1.87;100.00
34241;BME280;20503;50.200;19.508;2022-11-15T05:58:00;101785.88;;;1.85;100.00
34241;BME280;20503;50.200;19.508;2022-11-15T06:03:10;101785.30;;;1.82;100.00
34241;BME280;20503;50.200;19.508;2022-11-15T06:08:21;101780.14;;;1.78;100.00
34241;BME280;20503;50.200;19.508;2022-11-15T06:13:32;101784.78;;;1.87;100.00
34241;BME280;20503;50.200;19.508;2022-11-15T06:18:42;101782.54;;;1.92;100.00
34241;BME280;20503;50.200;19.508;2022-11-15T06:23:53;101782.04;;;1.98;100.00
34241;BME280;20503;50.200;19.508;2022-11-15T06:29:04;101791.42;;;1.83;100.00
34241;BME280;20503;50.200;19.508;2022-11-15T06:34:15;101782.77;;;2.21;100.00
34241;BME280;20503;50.200;19.508;2022-11-15T06:39:26;101786.20;;;2.43;100.00
34241;BME280;20503;50.200;19.508;2022-11-15T06:44:36;101779.51;;;3.18;100.00
34241;BME280;20503;50.200;19.508;2022-11-15T06:49:47;101782.38;;;2.96;100.00
34241;BME280;20503;50.200;19.508;2022-11-15T06:54:58;101778.99;;;3.04;100.00
34241;BME280;20503;50.200;19.508;2022-11-15T07:00:13;101785.12;;;3.45;100.00
34241;BME280;20503;50.200;19.508;2022-11-15T07:05:19;101788.05;;;3.81;100.00
34241;BME280;20503;50.200;19.508;2022-11-15T07:10:30;101779.37;;;4.25;100.00
34241;BME280;20503;50.200;19.508;2022-11-15T07:15:42;101777.20;;;4.57;100.00
34241;BME280;20503;50.200;19.508;2022-11-15T07:20:51;101779.26;;;4.82;100.00
34241;BME280;20503;50.200;19.508;2022-11-15T07:26:02;101784.08;;;5.25;100.00
34241;BME280;20503;50.200;19.508;2022-11-15T07:31:13;101775.04;;;6.40;100.00
34241;BME280;20503;50.200;19.508;2022-11-15T07:36:24;101766.34;;;7.46;100.00
34241;BME280;20503;50.200;19.508;2022-11-15T07:41:35;101766.97;;;7.40;100.00
34241;BME280;20503;50.200;19.508;2022-11-15T07:46:46;101755.48;;;8.35;100.00
34241;BME280;20503;50.200;19.508;2022-11-15T07:51:57;101758.21;;;9.29;100.00
34241;BME280;20503;50.200;19.508;2022-11-15T07:57:08;101755.34;;;10.22;100.00
34241;BME280;20503;50.200;19.508;2022-11-15T08:02:18;101737.69;;;10.99;95.07
34241;BME280;20503;50.200;19.508;2022-11-15T08:07:30;101744.30;;;11.33;93.58
34241;BME280;20503;50.200;19.508;2022-11-15T08:12:40;101733.98;;;11.35;91.50
34241;BME280;20503;50.200;19.508;2022-11-15T08:17:59;101748.71;;;10.76;93.40
34241;BME280;20503;50.200;19.508;2022-11-15T08:23:05;101738.79;;;10.75;93.08
34241;BME280;20503;50.200;19.508;2022-11-15T08:28:12;101748.74;;;11.48;89.81
34241;BME280;20503;50.200;19.508;2022-11-15T08:33:22;101748.84;;;11.55;87.09
34241;BME280;20503;50.200;19.508;2022-11-15T08:38:33;101730.86;;;11.52;86.18
34241;BME280;20503;50.200;19.508;2022-11-15T08:43:45;101729.63;;;11.69;84.66
34241;BME280;20503;50.200;19.508;2022-11-15T08:48:55;101734.61;;;12.37;85.16
34241;BME280;20503;50.200;19.508;2022-11-15T08:54:06;101738.72;;;12.47;84.66
34241;BME280;20503;50.200;19.508;2022-11-15T08:59:16;101732.92;;;12.36;83.59
34241;BME280;20503;50.200;19.508;2022-11-15T09:04:27;101742.83;;;12.58;83.28
34241;BME280;20503;50.200;19.508;2022-11-15T09:09:38;101744.36;;;12.88;83.74
34241;BME280;20503;50.200;19.508;2022-11-15T09:14:48;101751.28;;;13.05;82.91
34241;BME280;20503;50.200;19.508;2022-11-15T09:20:01;101741.30;;;13.31;81.17
34241;BME280;20503;50.200;19.508;2022-11-15T09:25:11;101734.81;;;13.98;74.50
34241;BME280;20503;50.200;19.508;2022-11-15T09:30:20;101731.09;;;13.65;74.16
34241;BME280;20503;50.200;19.508;2022-11-15T09:35:31;101730.09;;;13.79;73.85
34241;BME280;20503;50.200;19.508;2022-11-15T09:40:42;101721.52;;;14.15;71.54
34241;BME280;20503;50.200;19.508;2022-11-15T09:51:11;101704.56;;;14.11;71.13
34241;BME280;20503;50.200;19.508;2022-11-15T09:56:21;101694.68;;;14.62;70.43
34241;BME280;20503;50.200;19.508;2022-11-15T10:06:58;101664.36;;;14.82;69.61
34241;BME280;20503;50.200;19.508;2022-11-15T10:11:52;101651.02;;;14.46;69.35
34241;BME280;20503;50.200;19.508;2022-11-15T10:27:26;101630.66;;;14.60;68.93
34241;BME280;20503;50.200;19.508;2022-11-15T10:32:30;101638.23;;;14.97;66.92
34241;BME280;20503;50.200;19.508;2022-11-15T10:37:41;101628.09;;;14.85;67.93
34241;BME280;20503;50.200;19.508;2022-11-15T10:48:19;101608.62;;;14.15;70.26
34241;BME280;20503;50.200;19.508;2022-11-15T10:58:41;101594.75;;;14.99;67.16
34241;BME280;20503;50.200;19.508;2022-11-15T11:09:03;101584.88;;;14.59;68.21
34241;BME280;20503;50.200;19.508;2022-11-15T11:14:17;101578.53;;;15.22;65.60
34241;BME280;20503;50.200;19.508;2022-11-15T11:40:54;101560.24;;;14.77;66.14
34241;BME280;20503;50.200;19.508;2022-11-15T11:46:05;101550.39;;;14.24;66.46
34241;BME280;20503;50.200;19.508;2022-11-15T11:51:12;101554.17;;;14.10;67.59
34241;BME280;20503;50.200;19.508;2022-11-15T11:56:23;101545.78;;;13.13;68.68
34241;BME280;20503;50.200;19.508;2022-11-15T12:01:34;101562.00;;;12.61;72.05
34241;BME280;20503;50.200;19.508;2022-11-15T12:06:51;101554.53;;;12.21;73.83
34241;BME280;20503;50.200;19.508;2022-11-15T12:17:11;101535.38;;;12.00;76.21
34241;BME280;20503;50.200;19.508;2022-11-15T12:22:24;101530.59;;;11.81;77.58
34241;BME280;20503;50.200;19.508;2022-11-15T12:27:38;101527.31;;;11.71;78.36
34241;BME280;20503;50.200;19.508;2022-11-15T12:32:51;101519.04;;;11.92;78.34
34241;BME280;20503;50.200;19.508;2022-11-15T12:37:57;101503.57;;;11.85;77.22
34241;BME280;20503;50.200;19.508;2022-11-15T12:53:34;101495.63;;;11.69;79.08
34241;BME280;20503;50.200;19.508;2022-11-15T13:19:37;101458.90;;;11.21;82.25
34241;BME280;20503;50.200;19.508;2022-11-15T13:24:41;101456.66;;;11.11;83.50
34241;BME280;20503;50.200;19.508;2022-11-15T13:29:44;101453.93;;;11.11;83.55
34241;BME280;20503;50.200;19.508;2022-11-15T13:34:48;101453.49;;;11.07;83.72
34241;BME280;20503;50.200;19.508;2022-11-15T13:39:54;101439.33;;;11.04;84.68
34241;BME280;20503;50.200;19.508;2022-11-15T13:45:02;101435.37;;;11.06;83.74
34241;BME280;20503;50.200;19.508;2022-11-15T13:50:13;101425.48;;;11.12;83.48
34241;BME280;20503;50.200;19.508;2022-11-15T13:55:22;101428.69;;;11.15;84.60
34241;BME280;20503;50.200;19.508;2022-11-15T14:00:34;101428.63;;;11.09;84.14
34241;BME280;20503;50.200;19.508;2022-11-15T14:05:41;101426.21;;;10.99;85.16
34241;BME280;20503;50.200;19.508;2022-11-15T14:21:20;101404.77;;;10.82;87.34
34241;BME280;20503;50.200;19.508;2022-11-15T14:26:30;101412.69;;;10.77;87.17
34241;BME280;20503;50.200;19.508;2022-11-15T14:31:36;101399.98;;;10.69;88.06
34241;BME280;20503;50.200;19.508;2022-11-15T14:36:44;101402.66;;;10.63;88.28
34241;BME280;20503;50.200;19.508;2022-11-15T14:41:55;101392.67;;;10.55;89.15
34241;BME280;20503;50.200;19.508;2022-11-15T14:47:06;101388.35;;;10.46;89.69
34241;BME280;20503;50.200;19.508;2022-11-15T14:57:30;101371.90;;;10.25;90.71
34241;BME280;20503;50.200;19.508;2022-11-15T15:02:40;101366.59;;;10.24;91.95
34241;BME280;20503;50.200;19.508;2022-11-15T15:07:50;101368.34;;;10.10;92.53
34241;BME280;20503;50.200;19.508;2022-11-15T15:13:00;101370.68;;;9.99;92.70
34241;BME280;20503;50.200;19.508;2022-11-15T15:18:10;101367.86;;;9.92;92.43
34241;BME280;20503;50.200;19.508;2022-11-15T15:23:24;101367.28;;;9.82;93.81
34241;BME280;20503;50.200;19.508;2022-11-15T15:28:32;101366.35;;;9.75;94.29
34241;BME280;20503;50.200;19.508;2022-11-15T15:33:44;101367.40;;;9.74;94.38
34241;BME280;20503;50.200;19.508;2022-11-15T15:38:55;101355.12;;;9.70;94.93
34241;BME280;20503;50.200;19.508;2022-11-15T15:44:04;101355.80;;;9.72;94.81
34241;BME280;20503;50.200;19.508;2022-11-15T15:49:15;101351.94;;;9.67;95.07
34241;BME280;20503;50.200;19.508;2022-11-15T15:54:26;101349.77;;;9.62;95.15
34241;BME280;20503;50.200;19.508;2022-11-15T15:59:37;101346.75;;;9.57;95.65
34241;BME280;20503;50.200;19.508;2022-11-15T16:04:47;101347.49;;;9.51;96.35
34241;BME280;20503;50.200;19.508;2022-11-15T16:15:35;101339.08;;;9.38;98.33
34241;BME280;20503;50.200;19.508;2022-11-15T16:20:48;101334.76;;;9.44;97.95
34241;BME280;20503;50.200;19.508;2022-11-15T16:25:57;101332.34;;;9.49;97.75
34241;BME280;20503;50.200;19.508;2022-11-15T16:31:09;101338.07;;;9.54;97.35
34241;BME280;20503;50.200;19.508;2022-11-15T16:36:26;101337.12;;;9.32;99.19
34241;BME280;20503;50.200;19.508;2022-11-15T16:41:31;101318.43;;;9.22;100.00
34241;BME280;20503;50.200;19.508;2022-11-15T16:46:43;101339.08;;;9.24;100.00
34241;BME280;20503;50.200;19.508;2022-11-15T16:51:51;101322.41;;;9.19;100.00
34241;BME280;20503;50.200;19.508;2022-11-15T16:57:01;101329.85;;;9.25;100.00
34241;BME280;20503;50.200;19.508;2022-11-15T17:02:12;101329.95;;;9.17;100.00
34241;BME280;20503;50.200;19.508;2022-11-15T17:07:23;101333.77;;;9.08;100.00
34241;BME280;20503;50.200;19.508;2022-11-15T17:12:35;101320.40;;;8.99;100.00
34241;BME280;20503;50.200;19.508;2022-11-15T17:17:50;101321.42;;;8.98;100.00
34241;BME280;20503;50.200;19.508;2022-11-15T17:22:55;101317.11;;;9.03;100.00
34241;BME280;20503;50.200;19.508;2022-11-15T17:28:06;101307.50;;;9.07;100.00
34241;BME280;20503;50.200;19.508;2022-11-15T17:33:17;101308.72;;;9.05;100.00
34241;BME280;20503;50.200;19.508;2022-11-15T17:38:28;101305.33;;;9.03;100.00
34241;BME280;20503;50.200;19.508;2022-11-15T17:43:40;101300.02;;;8.87;100.00
34241;BME280;20503;50.200;19.508;2022-11-15T17:48:49;101292.48;;;8.89;100.00
34241;BME280;20503;50.200;19.508;2022-11-15T17:54:00;101273.98;;;9.13;100.00
34241;BME280;20503;50.200;19.508;2022-11-15T17:59:11;101265.44;;;9.16;100.00
34241;BME280;20503;50.200;19.508;2022-11-15T18:04:22;101263.98;;;9.06;100.00
34241;BME280;20503;50.200;19.508;2022-11-15T18:09:32;101254.97;;;8.91;100.00
34241;BME280;20503;50.200;19.508;2022-11-15T18:14:46;101255.02;;;8.83;100.00
34241;BME280;20503;50.200;19.508;2022-11-15T18:19:54;101254.37;;;8.81;100.00
34241;BME280;20503;50.200;19.508;2022-11-15T18:25:05;101258.77;;;8.67;100.00
34241;BME280;20503;50.200;19.508;2022-11-15T18:30:17;101246.70;;;8.62;100.00
34241;BME280;20503;50.200;19.508;2022-11-15T18:35:27;101242.17;;;8.54;100.00
34241;BME280;20503;50.200;19.508;2022-11-15T18:40:37;101251.88;;;8.57;100.00
34241;BME280;20503;50.200;19.508;2022-11-15T18:45:47;101241.68;;;8.51;100.00
34241;BME280;20503;50.200;19.508;2022-11-15T18:51:04;101230.51;;;8.60;100.00
34241;BME280;20503;50.200;19.508;2022-11-15T18:56:12;101224.34;;;8.81;100.00
34241;BME280;20503;50.200;19.508;2022-11-15T19:01:23;101207.41;;;8.85;100.00
34241;BME280;20503;50.200;19.508;2022-11-15T19:06:31;101218.77;;;8.89;100.00
34241;BME280;20503;50.200;19.508;2022-11-15T19:11:43;101215.39;;;8.87;100.00
34241;BME280;20503;50.200;19.508;2022-11-15T19:16:52;101210.87;;;8.79;100.00
34241;BME280;20503;50.200;19.508;2022-11-15T19:22:04;101214.25;;;8.81;100.00
34241;BME280;20503;50.200;19.508;2022-11-15T19:27:14;101217.47;;;8.85;100.00
34241;BME280;20503;50.200;19.508;2022-11-15T19:32:24;101202.78;;;8.86;100.00
34241;BME280;20503;50.200;19.508;2022-11-15T19:37:35;101208.07;;;8.87;100.00
34241;BME280;20503;50.200;19.508;2022-11-15T19:42:46;101212.11;;;8.91;100.00
34241;BME280;20503;50.200;19.508;2022-11-15T19:47:57;101212.28;;;8.75;100.00
34241;BME280;20503;50.200;19.508;2022-11-15T19:53:08;101204.64;;;8.71;100.00
34241;BME280;20503;50.200;19.508;2022-11-15T19:58:20;101208.02;;;8.73;100.00
34241;BME280;20503;50.200;19.508;2022-11-15T20:03:31;101204.30;;;8.74;100.00
34241;BME280;20503;50.200;19.508;2022-11-15T20:08:41;101192.35;;;8.75;100.00
34241;BME280;20503;50.200;19.508;2022-11-15T20:13:55;101173.69;;;8.64;100.00
34241;BME280;20503;50.200;19.508;2022-11-15T20:19:02;101175.83;;;8.54;100.00
34241;BME280;20503;50.200;19.508;2022-11-15T20:24:12;101175.48;;;8.57;100.00
34241;BME280;20503;50.200;19.508;2022-11-15T20:29:24;101183.84;;;8.55;100.00
34241;BME280;20503;50.200;19.508;2022-11-15T20:34:34;101179.41;;;8.54;100.00
34241;BME280;20503;50.200;19.508;2022-11-15T20:39:46;101174.99;;;8.53;100.00
34241;BME280;20503;50.200;19.508;2022-11-15T20:44:56;101179.22;;;8.56;100.00
34241;BME280;20503;50.200;19.508;2022-11-15T20:50:09;101157.59;;;8.54;100.00
34241;BME280;20503;50.200;19.508;2022-11-15T20:55:24;101149.03;;;8.57;100.00
34241;BME280;20503;50.200;19.508;2022-11-15T21:00:28;101161.15;;;8.55;100.00
34241;BME280;20503;50.200;19.508;2022-11-15T21:05:40;101153.16;;;8.53;100.00
34241;BME280;20503;50.200;19.508;2022-11-15T21:10:51;101152.97;;;8.55;100.00
34241;BME280;20503;50.200;19.508;2022-11-15T21:16:07;101134.94;;;8.68;100.00
34241;BME280;20503;50.200;19.508;2022-11-15T21:21:11;101127.88;;;8.74;100.00
34241;BME280;20503;50.200;19.508;2022-11-15T21:26:23;101125.99;;;8.60;100.00
34241;BME280;20503;50.200;19.508;2022-11-15T21:31:34;101119.77;;;8.51;100.00
34241;BME280;20503;50.200;19.508;2022-11-15T21:36:43;101113.66;;;8.49;100.00
34241;BME280;20503;50.200;19.508;2022-11-15T21:41:53;101106.69;;;8.47;100.00
34241;BME280;20503;50.200;19.508;2022-11-15T21:47:06;101100.57;;;8.45;100.00
34241;BME280;20503;50.200;19.508;2022-11-15T21:52:15;101098.02;;;8.43;100.00
34241;BME280;20503;50.200;19.508;2022-11-15T21:57:27;101105.16;;;8.44;100.00
34241;BME280;20503;50.200;19.508;2022-11-15T22:02:38;101109.41;;;8.32;100.00
34241;BME280;20503;50.200;19.508;2022-11-15T22:07:47;101105.82;;;8.32;100.00
34241;BME280;20503;50.200;19.508;2022-11-15T22:12:58;101106.93;;;8.23;100.00
34241;BME280;20503;50.200;19.508;2022-11-15T22:18:09;101104.51;;;8.28;100.00
34241;BME280;20503;50.200;19.508;2022-11-15T22:23:20;101095.02;;;8.38;100.00
34241;BME280;20503;50.200;19.508;2022-11-15T22:28:33;101093.23;;;8.45;100.00
34241;BME280;20503;50.200;19.508;2022-11-15T22:33:42;101074.23;;;8.52;100.00
34241;BME280;20503;50.200;19.508;2022-11-15T22:38:52;101073.12;;;8.61;100.00
34241;BME280;20503;50.200;19.508;2022-11-15T22:44:03;101059.83;;;8.72;100.00
34241;BME280;20503;50.200;19.508;2022-11-15T22:49:15;101054.73;;;8.84;100.00
34241;BME280;20503;50.200;19.508;2022-11-15T22:54:26;101041.08;;;8.84;100.00
34241;BME280;20503;50.200;19.508;2022-11-15T22:59:36;101036.19;;;8.79;100.00
34241;BME280;20503;50.200;19.508;2022-11-15T23:04:46;101027.55;;;8.76;100.00
34241;BME280;20503;50.200;19.508;2022-11-15T23:09:57;101015.31;;;8.72;100.00
34241;BME280;20503;50.200;19.508;2022-11-15T23:15:10;101001.78;;;8.64;100.00
34241;BME280;20503;50.200;19.508;2022-11-15T23:20:19;101018.23;;;8.70;100.00
34241;BME280;20503;50.200;19.508;2022-11-15T23:25:29;101003.09;;;8.68;100.00
34241;BME280;20503;50.200;19.508;2022-11-15T23:30:41;100997.16;;;8.64;100.00
34241;BME280;20503;50.200;19.508;2022-11-15T23:35:55;100987.50;;;8.62;100.00
34241;BME280;20503;50.200;19.508;2022-11-15T23:41:04;100992.30;;;8.60;100.00
34241;BME280;20503;50.200;19.508;2022-11-15T23:46:13;100988.52;;;8.61;100.00
34241;BME280;20503;50.200;19.508;2022-11-15T23:51:24;100986.06;;;8.66;100.00
34241;BME280;20503;50.200;19.508;2022-11-15T23:56:35;100970.73;;;8.65;100.00
